Time;durP1;ratioP1;P1;durP2;ratioP2;P2;SDS_P1;SDS_P2;PMS_P1;PMS_P2;Temp;Humidity;BMP_temperature;BMP_pressure;BME280_temperature;BME280_humidity;BME280_pressure;Samples;Min_cycle;Max_cycle;Signal;HPM_P1;HPM_P2
2021/10/06 00:00:12;;;;;;;10.48;3.80;;;17.40;83.10;;;;;;5014188;28;20025;-55
2021/10/06 00:02:38;;;;;;;8.57;5.57;;;17.30;83.00;;;;;;5014539;28;20112;-54
2021/10/06 00:05:04;;;;;;;12.18;5.25;;;17.30;82.70;;;;;;5013882;28;20030;-54
2021/10/06 00:07:30;;;;;;;9.27;4.78;;;17.30;83.10;;;;;;5011985;28;20504;-53
2021/10/06 00:09:55;;;;;;;7.57;4.25;;;17.40;85.20;;;;;;5013868;28;20026;-53
2021/10/06 00:12:21;;;;;;;11.98;5.30;;;17.40;85.60;;;;;;5013568;28;20462;-55
2021/10/06 00:14:47;;;;;;;15.15;6.20;;;17.40;86.30;;;;;;5013627;28;20030;-53
2021/10/06 00:17:12;;;;;;;11.77;5.60;;;17.40;86.30;;;;;;4998628;28;20046;-55
2021/10/06 00:19:38;;;;;;;7.85;4.35;;;17.50;86.40;;;;;;5017734;28;20084;-54
2021/10/06 00:22:04;;;;;;;11.48;5.65;;;17.50;86.30;;;;;;4999676;28;20117;-55
2021/10/06 00:24:30;;;;;;;11.85;4.63;;;17.50;86.50;;;;;;4999725;28;20545;-55
2021/10/06 00:26:56;;;;;;;11.13;5.55;;;17.40;87.70;;;;;;4999570;28;20041;-55
2021/10/06 00:29:22;;;;;;;10.23;4.90;;;17.30;88.90;;;;;;5017564;28;20058;-53
2021/10/06 00:31:47;;;;;;;7.80;5.15;;;17.30;88.50;;;;;;5017382;28;20040;-53
2021/10/06 00:34:15;;;;;;;10.23;5.22;;;17.30;88.60;;;;;;5017454;28;20076;-55
2021/10/06 00:36:41;;;;;;;6.45;3.85;;;17.20;87.90;;;;;;4983430;28;20045;-54
2021/10/06 00:39:07;;;;;;;11.57;4.80;;;;;;;;;;5017081;28;20420;-54
2021/10/06 00:41:34;;;;;;;6.78;3.42;;;;;;;;;;5017301;28;20029;-55
2021/10/06 00:44:00;;;;;;;12.88;5.20;;;;;;;;;;5017345;28;20065;-54
2021/10/06 00:46:27;;;;;;;7.38;4.82;;;;;;;;;;5017190;28;20045;-53
2021/10/06 00:48:53;;;;;;;9.75;4.95;;;;;;;;;;5017079;28;20112;-56
2021/10/06 00:51:20;;;;;;;10.68;6.20;;;;;;;;;;4999161;28;20038;-52
2021/10/06 00:53:46;;;;;;;8.00;4.95;;;;;;;;;;5017217;28;20040;-53
2021/10/06 00:56:12;;;;;;;9.75;4.90;;;17.30;92.30;;;;;;5016821;28;20038;-55
2021/10/06 00:58:38;;;;;;;8.63;4.97;;;17.30;92.80;;;;;;5016869;28;20389;-54
2021/10/06 01:01:04;;;;;;;7.70;4.35;;;17.40;92.60;;;;;;5016935;28;20121;-54
2021/10/06 01:03:30;;;;;;;5.80;2.92;;;17.30;92.70;;;;;;5017036;28;20105;-55
2021/10/06 01:05:56;;;;;;;10.88;5.05;;;17.30;92.70;;;;;;5016959;28;20119;-53
2021/10/06 01:08:22;;;;;;;10.93;4.60;;;17.30;92.90;;;;;;5015265;28;20060;-55
2021/10/06 01:10:48;;;;;;;16.42;5.43;;;17.20;93.00;;;;;;4982776;28;20048;-52
2021/10/06 01:13:16;;;;;;;11.38;4.32;;;17.30;93.20;;;;;;5014920;28;20041;-53
2021/10/06 01:15:44;;;;;;;9.20;5.07;;;17.30;93.00;;;;;;5016627;28;20034;-53
2021/10/06 01:18:10;;;;;;;7.10;4.00;;;17.20;93.30;;;;;;5016628;28;20022;-53
2021/10/06 01:20:36;;;;;;;12.52;4.20;;;17.20;93.40;;;;;;4982428;28;20549;-54
2021/10/06 01:23:02;;;;;;;10.52;5.10;;;17.20;93.70;;;;;;5016512;28;20496;-55
2021/10/06 01:25:28;;;;;;;4.93;3.40;;;17.20;94.00;;;;;;5016630;28;20034;-52
2021/10/06 01:27:53;;;;;;;8.93;4.70;;;17.20;94.10;;;;;;5016400;28;20100;-54
2021/10/06 01:30:19;;;;;;;8.50;5.13;;;17.10;94.50;;;;;;5016523;28;20509;-54
2021/10/06 01:32:46;;;;;;;10.43;5.47;;;17.20;94.50;;;;;;4998256;28;20038;-53
2021/10/06 01:35:14;;;;;;;11.65;5.15;;;17.20;94.90;;;;;;5016349;28;20045;-54
2021/10/06 01:37:41;;;;;;;7.35;4.78;;;17.10;95.00;;;;;;5016245;28;20030;-55
2021/10/06 01:40:12;;;;;;;12.20;5.07;;;17.10;95.10;;;;;;5014384;28;20053;-55
2021/10/06 01:42:39;;;;;;;9.70;4.50;;;17.10;95.40;;;;;;4998601;28;20034;-55
2021/10/06 01:45:06;;;;;;;8.05;4.72;;;17.00;95.70;;;;;;5016219;28;20050;-54
2021/10/06 01:47:31;;;;;;;6.82;3.80;;;17.00;96.30;;;;;;5016243;28;20115;-53
2021/10/06 01:49:59;;;;;;;10.55;5.03;;;;;;;;;;5016284;28;20061;-53
2021/10/06 01:52:25;;;;;;;10.88;5.15;;;;;;;;;;5016105;28;20037;-53
2021/10/06 01:54:53;;;;;;;13.75;5.60;;;16.90;99.90;;;;;;5015872;28;20176;-55
2021/10/06 01:57:18;;;;;;;13.88;5.07;;;17.00;99.90;;;;;;5016103;28;20424;-54
2021/10/06 01:59:45;;;;;;;9.23;4.30;;;17.00;99.90;;;;;;4997748;28;20121;-54
2021/10/06 02:02:12;;;;;;;9.60;5.03;;;;;;;;;;5015973;28;20169;-55
2021/10/06 02:04:38;;;;;;;13.93;4.82;;;;;;;;;;5015757;28;20034;-55
2021/10/06 02:07:04;;;;;;;16.15;4.70;;;;;;;;;;5015748;28;20034;-54
2021/10/06 02:09:30;;;;;;;11.90;5.07;;;;;;;;;;5015627;28;20038;-53
2021/10/06 02:11:56;;;;;;;9.68;4.65;;;16.50;99.90;;;;;;4993771;28;20046;-53
2021/10/06 02:14:22;;;;;;;9.48;4.07;;;16.60;82.90;;;;;;4993433;28;20053;-54
2021/10/06 02:16:48;;;;;;;7.50;4.22;;;16.60;82.80;;;;;;4993932;28;20046;-55
2021/10/06 02:19:17;;;;;;;14.15;5.20;;;16.60;99.90;;;;;;4994012;28;20036;-56
2021/10/06 02:21:42;;;;;;;9.23;4.10;;;16.70;82.90;;;;;;4993800;28;20511;-53
2021/10/06 02:24:08;;;;;;;15.27;6.22;;;16.70;82.60;;;;;;4977857;28;20038;-53
2021/10/06 02:26:34;;;;;;;15.90;6.60;;;16.70;82.60;;;;;;4993775;28;20532;-55
2021/10/06 02:29:00;;;;;;;8.75;5.53;;;16.70;82.40;;;;;;4994154;28;20597;-55
2021/10/06 02:31:26;;;;;;;11.07;6.82;;;16.80;82.40;;;;;;4993553;28;20113;-54
2021/10/06 02:33:51;;;;;;;7.65;4.93;;;16.70;82.40;;;;;;4993427;28;20033;-54
2021/10/06 02:36:17;;;;;;;6.13;3.75;;;16.60;82.60;;;;;;4977523;28;20077;-53
2021/10/06 02:38:43;;;;;;;11.48;4.82;;;16.60;82.40;;;;;;4992731;28;20501;-56
2021/10/06 02:41:09;;;;;;;13.23;6.13;;;;;;;;;;4993603;28;20069;-55
2021/10/06 02:43:35;;;;;;;9.98;4.45;;;16.70;98.30;;;;;;5010845;28;20038;-55
2021/10/06 02:46:00;;;;;;;13.00;5.10;;;16.70;98.00;;;;;;5014802;28;20075;-54
2021/10/06 02:48:26;;;;;;;15.15;6.45;;;16.70;97.50;;;;;;5015201;28;20026;-55
2021/10/06 02:50:52;;;;;;;11.23;5.47;;;16.70;97.70;;;;;;5014964;28;20026;-55
2021/10/06 02:53:18;;;;;;;9.23;4.55;;;16.80;96.70;;;;;;5014820;28;20125;-55
2021/10/06 02:55:43;;;;;;;11.27;4.55;;;16.80;96.50;;;;;;5014866;28;20378;-53
2021/10/06 02:58:09;;;;;;;8.98;5.18;;;16.80;96.20;;;;;;5012889;28;20124;-55
2021/10/06 03:00:36;;;;;;;10.82;6.18;;;16.80;96.20;;;;;;5014961;28;20026;-56
2021/10/06 03:03:01;;;;;;;11.82;4.97;;;16.80;96.40;;;;;;5013411;28;20423;-54
2021/10/06 03:05:27;;;;;;;10.05;5.15;;;16.80;96.90;;;;;;4996611;28;20127;-54
2021/10/06 03:07:53;;;;;;;8.70;5.03;;;16.90;96.30;;;;;;5014647;28;20022;-55
2021/10/06 03:10:19;;;;;;;12.30;4.47;;;16.80;96.80;;;;;;5012959;28;20038;-53
2021/10/06 03:12:45;;;;;;;8.88;4.80;;;16.90;96.80;;;;;;5014530;28;20037;-55
2021/10/06 03:15:11;;;;;;;7.15;3.78;;;16.80;96.70;;;;;;5014338;28;20484;-55
2021/10/06 03:17:37;;;;;;;7.35;4.63;;;16.80;96.60;;;;;;4993047;28;20213;-53
2021/10/06 03:20:06;;;;;;;9.15;5.25;;;17.00;95.50;;;;;;4960660;28;20038;-56
2021/10/06 03:22:31;;;;;;;10.18;4.00;;;17.00;95.20;;;;;;4992682;28;20042;-55
2021/10/06 03:24:57;;;;;;;9.00;4.53;;;16.90;96.10;;;;;;4992380;28;20076;-53
2021/10/06 03:27:23;;;;;;;12.70;4.38;;;16.90;96.20;;;;;;4992674;28;20034;-53
2021/10/06 03:29:49;;;;;;;12.10;3.50;;;16.80;96.40;;;;;;4992584;28;20546;-55
2021/10/06 03:32:14;;;;;;;9.88;5.57;;;16.90;95.70;;;;;;4976180;28;20049;-53
2021/10/06 03:34:40;;;;;;;7.97;5.00;;;16.80;97.00;;;;;;4976172;28;20133;-52
2021/10/06 03:37:06;;;;;;;10.77;4.93;;;16.80;97.40;;;;;;4976227;28;20085;-54
2021/10/06 03:39:32;;;;;;;8.68;5.25;;;16.70;97.50;;;;;;4975932;28;20101;-54
2021/10/06 03:41:58;;;;;;;6.22;2.88;;;16.70;96.10;;;;;;4959919;28;20042;-56
2021/10/06 03:44:24;;;;;;;6.35;4.00;;;16.60;95.60;;;;;;4976396;28;20034;-54
2021/10/06 03:46:49;;;;;;;6.60;4.03;;;16.60;95.60;;;;;;4992302;28;20105;-53
2021/10/06 03:49:15;;;;;;;11.65;6.43;;;16.50;84.40;;;;;;4990913;28;20030;-52
2021/10/06 03:51:41;;;;;;;8.77;5.00;;;16.50;84.10;;;;;;5011963;28;20049;-53
2021/10/06 03:54:07;;;;;;;6.88;4.15;;;16.60;83.80;;;;;;5011927;28;20030;-55
2021/10/06 03:56:32;;;;;;;11.07;4.95;;;16.60;83.60;;;;;;4979403;28;20096;-53
2021/10/06 03:58:58;;;;;;;9.02;5.82;;;16.70;83.50;;;;;;4995892;28;20038;-54
2021/10/06 04:01:24;;;;;;;10.95;4.80;;;16.70;83.50;;;;;;5012146;28;20033;-55
2021/10/06 04:03:49;;;;;;;11.00;4.78;;;16.70;84.00;;;;;;5013968;28;20030;-53
2021/10/06 04:06:15;;;;;;;6.03;3.85;;;16.70;84.30;;;;;;5014131;28;20091;-55
2021/10/06 04:08:41;;;;;;;7.60;4.22;;;16.60;84.00;;;;;;5013733;28;20470;-54
2021/10/06 04:11:07;;;;;;;6.50;4.50;;;16.60;84.00;;;;;;4995590;28;20045;-56
2021/10/06 04:13:32;;;;;;;8.48;4.82;;;16.50;84.40;;;;;;5013778;28;20034;-54
2021/10/06 04:15:58;;;;;;;10.93;5.45;;;16.60;84.40;;;;;;5011979;28;20042;-55
2021/10/06 04:18:24;;;;;;;9.82;4.50;;;16.50;84.50;;;;;;4995823;28;20069;-54
2021/10/06 04:20:50;;;;;;;12.57;4.88;;;16.50;86.10;;;;;;5013626;28;20109;-53
2021/10/06 04:23:15;;;;;;;7.70;5.05;;;16.50;87.30;;;;;;4995639;28;20033;-55
2021/10/06 04:25:41;;;;;;;7.97;5.13;;;16.40;88.00;;;;;;4995565;28;20041;-53
2021/10/06 04:28:07;;;;;;;8.88;5.38;;;16.40;89.20;;;;;;5011938;28;20408;-53
2021/10/06 04:30:33;;;;;;;9.40;6.05;;;16.30;89.90;;;;;;5013905;28;20033;-53
2021/10/06 04:32:59;;;;;;;9.00;5.65;;;16.30;90.30;;;;;;5013925;28;20470;-56
2021/10/06 04:35:25;;;;;;;10.05;5.53;;;16.30;90.60;;;;;;5013293;28;20033;-55
2021/10/06 04:37:51;;;;;;;9.45;6.05;;;16.80;96.80;;;;;;4995370;28;20104;-53
2021/10/06 04:40:17;;;;;;;11.00;6.00;;;16.30;90.80;;;;;;5013535;28;20474;-52
2021/10/06 04:42:45;;;;;;;11.50;6.55;;;16.30;91.00;;;;;;5012017;28;20057;-55
2021/10/06 04:45:12;;;;;;;12.95;6.38;;;16.40;91.50;;;;;;5013389;28;20064;-54
2021/10/06 04:47:38;;;;;;;11.75;6.18;;;16.50;96.70;;;;;;5013376;28;20030;-55
2021/10/06 04:50:04;;;;;;;10.23;6.50;;;16.60;95.00;;;;;;5013336;28;20076;-56
2021/10/06 04:52:30;;;;;;;11.13;5.88;;;16.40;91.60;;;;;;5013253;28;20034;-55
2021/10/06 04:54:56;;;;;;;10.48;6.90;;;16.40;91.70;;;;;;5013416;28;20025;-52
2021/10/06 04:57:22;;;;;;;11.48;6.25;;;16.40;91.60;;;;;;4995348;28;20046;-55
2021/10/06 04:59:48;;;;;;;14.68;6.95;;;16.30;91.50;;;;;;5011395;28;20034;-53
2021/10/06 05:02:14;;;;;;;9.80;5.53;;;16.40;92.20;;;;;;5014225;28;20026;-53
2021/10/06 05:04:40;;;;;;;12.65;7.03;;;16.60;91.50;;;;;;5017172;28;20377;-53
2021/10/06 05:07:06;;;;;;;16.05;7.05;;;16.50;91.30;;;;;;5015381;28;20129;-56
2021/10/06 05:09:32;;;;;;;9.98;7.57;;;16.50;91.70;;;;;;5016824;28;20128;-56
2021/10/06 05:11:58;;;;;;;9.13;6.90;;;16.50;91.20;;;;;;4997634;28;20045;-54
2021/10/06 05:14:24;;;;;;;10.35;6.25;;;16.30;91.70;;;;;;4998490;28;20077;-52
2021/10/06 05:16:52;;;;;;;11.95;6.97;;;16.20;91.90;;;;;;5016792;28;20058;-55
2021/10/06 05:19:19;;;;;;;9.98;6.80;;;16.20;91.90;;;;;;4999024;28;20065;-54
2021/10/06 05:21:44;;;;;;;13.00;6.65;;;16.10;91.90;;;;;;5016467;28;20038;-52
2021/10/06 05:24:10;;;;;;;9.27;7.15;;;16.10;92.00;;;;;;5016952;28;20022;-53
2021/10/06 05:26:36;;;;;;;8.13;6.78;;;16.10;92.30;;;;;;5015737;28;20561;-55
2021/10/06 05:29:03;;;;;;;13.10;7.18;;;16.10;92.60;;;;;;5012144;28;20030;-55
2021/10/06 05:31:29;;;;;;;8.70;6.60;;;16.10;92.80;;;;;;5005747;28;20026;-54
2021/10/06 05:33:55;;;;;;;10.88;7.30;;;16.20;92.70;;;;;;5005507;28;20405;-54
2021/10/06 05:36:21;;;;;;;11.55;7.25;;;16.30;93.00;;;;;;5004962;28;20512;-54
2021/10/06 05:38:47;;;;;;;14.18;6.60;;;16.20;92.20;;;;;;4977071;28;20069;-52
2021/10/06 05:41:12;;;;;;;10.15;7.18;;;16.00;92.90;;;;;;5005558;28;20030;-55
2021/10/06 05:43:38;;;;;;;11.77;7.63;;;15.90;93.70;;;;;;4954222;28;20466;-54
2021/10/06 05:46:04;;;;;;;9.00;6.80;;;15.80;93.60;;;;;;5006521;28;21316;-53
2021/10/06 05:48:30;;;;;;;10.98;6.45;;;15.60;94.50;;;;;;5003858;28;20038;-53
2021/10/06 05:50:55;;;;;;;14.25;6.70;;;15.40;94.80;;;;;;4987085;28;20371;-55
2021/10/06 05:53:21;;;;;;;13.07;7.57;;;15.30;95.50;;;;;;4988843;28;20486;-53
2021/10/06 05:55:47;;;;;;;13.30;8.18;;;15.30;96.10;;;;;;5005878;28;20498;-54
2021/10/06 05:58:13;;;;;;;10.25;8.10;;;15.30;96.30;;;;;;5006046;28;20023;-53
2021/10/06 06:00:39;;;;;;;9.73;8.65;;;15.50;96.90;;;;;;5000165;28;20036;-53
2021/10/06 06:03:08;;;;;;;11.00;8.93;;;15.60;97.10;;;;;;5000530;28;20125;-53
2021/10/06 06:05:34;;;;;;;12.02;9.82;;;15.70;97.40;;;;;;5007359;28;20544;-52
2021/10/06 06:07:59;;;;;;;22.17;10.00;;;15.50;97.60;;;;;;5033093;28;20030;-55
2021/10/06 06:10:25;;;;;;;14.20;10.48;;;15.60;97.60;;;;;;5014245;28;20033;-55
2021/10/06 06:12:52;;;;;;;12.48;10.20;;;15.80;97.70;;;;;;5014099;28;20030;-52
2021/10/06 06:15:18;;;;;;;13.55;10.85;;;15.70;98.10;;;;;;5005662;28;20065;-53
2021/10/06 06:17:43;;;;;;;16.30;10.85;;;15.70;98.10;;;;;;4999029;28;20426;-53
2021/10/06 06:20:12;;;;;;;16.20;12.50;;;15.70;98.40;;;;;;5006265;28;20133;-55
2021/10/06 06:22:38;;;;;;;23.27;17.63;;;15.70;98.50;;;;;;4996575;28;20059;-55
2021/10/06 06:25:07;;;;;;;56.33;30.00;;;15.80;98.80;;;;;;4995848;28;20080;-54
2021/10/06 06:27:32;;;;;;;56.35;28.05;;;15.70;99.10;;;;;;4977626;28;20453;-55
2021/10/06 06:29:58;;;;;;;34.58;20.05;;;15.70;99.20;;;;;;4995910;28;20121;-52
2021/10/06 06:32:24;;;;;;;30.13;19.75;;;15.70;99.20;;;;;;4996130;28;20061;-55
2021/10/06 06:34:50;;;;;;;19.48;16.05;;;15.50;99.50;;;;;;4961595;28;20054;-55
2021/10/06 06:37:16;;;;;;;27.02;15.20;;;15.60;99.80;;;;;;4995552;28;20026;-53
2021/10/06 06:39:42;;;;;;;20.52;10.13;;;15.60;99.80;;;;;;4999897;28;20398;-54
2021/10/06 06:42:08;;;;;;;15.50;11.20;;;15.30;99.80;;;;;;5009013;28;20030;-54
2021/10/06 06:44:34;;;;;;;18.77;10.95;;;15.20;99.90;;;;;;5005278;28;20029;-52
2021/10/06 06:47:01;;;;;;;12.45;9.60;;;15.10;99.90;;;;;;4977750;28;20042;-53
2021/10/06 06:49:27;;;;;;;15.55;10.13;;;15.20;99.90;;;;;;4992998;28;20050;-53
2021/10/06 06:51:52;;;;;;;14.48;10.27;;;15.30;99.90;;;;;;5013874;28;20382;-52
2021/10/06 06:54:18;;;;;;;11.98;10.38;;;15.40;99.90;;;;;;5011023;28;20109;-55
2021/10/06 06:56:44;;;;;;;18.05;9.73;;;15.40;99.90;;;;;;4994621;28;20038;-54
2021/10/06 06:59:10;;;;;;;16.17;9.73;;;15.30;99.90;;;;;;5004550;28;20026;-56
2021/10/06 07:01:36;;;;;;;15.13;10.10;;;15.30;99.90;;;;;;5001860;28;20405;-54
2021/10/06 07:04:02;;;;;;;19.77;10.25;;;15.30;99.90;;;;;;5005586;28;20025;-56
2021/10/06 07:06:34;;;;;;;10.05;8.57;;;15.30;99.90;;;;;;5003079;28;20035;-52
2021/10/06 07:09:01;;;;;;;16.17;9.20;;;15.20;99.90;;;;;;5004582;28;20401;-54
2021/10/06 07:11:29;;;;;;;12.82;8.18;;;15.10;99.90;;;;;;5004148;28;20401;-55
2021/10/06 07:13:55;;;;;;;10.25;8.30;;;15.00;99.90;;;;;;5004688;28;20374;-55
2021/10/06 07:16:21;;;;;;;13.75;7.40;;;15.00;99.90;;;;;;5002966;28;20031;-53
2021/10/06 07:18:47;;;;;;;14.30;7.45;;;15.00;99.90;;;;;;5001282;28;20097;-55
2021/10/06 07:21:13;;;;;;;12.40;7.82;;;14.90;99.90;;;;;;5004910;28;20097;-55
2021/10/06 07:23:39;;;;;;;14.82;8.15;;;14.90;99.90;;;;;;5002347;28;20128;-55
2021/10/06 07:26:04;;;;;;;12.07;8.05;;;14.90;99.90;;;;;;5005353;28;20038;-54
2021/10/06 07:28:30;;;;;;;15.65;9.18;;;14.80;99.90;;;;;;5009062;28;20029;-54
2021/10/06 07:30:57;;;;;;;14.57;9.02;;;14.80;99.90;;;;;;4996776;28;20032;-55
2021/10/06 07:33:22;;;;;;;17.30;9.20;;;14.80;99.90;;;;;;5000475;28;20471;-52
2021/10/06 07:35:48;;;;;;;15.77;10.15;;;14.80;99.90;;;;;;4993177;28;20041;-52
2021/10/06 07:38:15;;;;;;;17.85;11.60;;;14.80;99.90;;;;;;4993188;28;20129;-54
2021/10/06 07:40:40;;;;;;;17.10;13.70;;;14.90;99.90;;;;;;4993289;28;20030;-54
2021/10/06 07:43:06;;;;;;;21.20;14.63;;;14.80;99.90;;;;;;5004142;28;20390;-53
2021/10/06 07:45:32;;;;;;;18.98;13.52;;;14.90;99.90;;;;;;5012867;28;20462;-55
2021/10/06 07:47:58;;;;;;;14.68;12.20;;;14.80;99.90;;;;;;5012879;28;20034;-52
2021/10/06 07:50:24;;;;;;;19.90;13.18;;;14.80;99.90;;;;;;5012840;28;20116;-55
2021/10/06 07:52:50;;;;;;;21.10;14.40;;;14.90;99.90;;;;;;5010024;28;20122;-56
2021/10/06 07:55:17;;;;;;;20.67;14.23;;;15.00;99.90;;;;;;5012693;28;20042;-53
2021/10/06 07:57:43;;;;;;;18.75;13.90;;;15.10;99.90;;;;;;5012668;28;20121;-53
2021/10/06 08:00:10;;;;;;;15.45;12.85;;;15.00;99.90;;;;;;5006696;28;20076;-56
2021/10/06 08:02:36;;;;;;;11.55;9.85;;;15.10;99.90;;;;;;4991431;28;20092;-53
2021/10/06 08:05:02;;;;;;;11.05;7.55;;;15.10;99.90;;;;;;4994347;28;20049;-55
2021/10/06 08:07:28;;;;;;;15.80;9.57;;;15.00;99.90;;;;;;5012571;28;20038;-56
2021/10/06 08:09:54;;;;;;;12.93;9.18;;;15.10;99.90;;;;;;4994236;28;20092;-53
2021/10/06 08:12:20;;;;;;;15.50;12.55;;;15.00;99.90;;;;;;5010546;28;20088;-52
2021/10/06 08:14:45;;;;;;;15.20;10.38;;;15.20;99.90;;;;;;5010342;28;20406;-56
2021/10/06 08:17:11;;;;;;;12.13;8.05;;;15.20;99.90;;;;;;4994121;28;20092;-55
2021/10/06 08:19:37;;;;;;;8.73;6.47;;;15.20;99.90;;;;;;5012414;28;20049;-53
2021/10/06 08:22:04;;;;;;;12.52;8.25;;;15.00;99.90;;;;;;5012435;28;20045;-57
2021/10/06 08:24:30;;;;;;;10.50;6.28;;;15.10;99.90;;;;;;5011180;28;20398;-54
2021/10/06 08:26:57;;;;;;;13.57;10.48;;;15.10;99.90;;;;;;4993926;28;20042;-57
2021/10/06 08:29:23;;;;;;;10.93;8.32;;;15.30;99.90;;;;;;4989701;28;20121;-56
2021/10/06 08:31:48;;;;;;;9.63;7.13;;;15.20;99.90;;;;;;4992575;28;20124;-56
2021/10/06 08:34:14;;;;;;;11.23;8.88;;;15.20;99.90;;;;;;4992751;28;20041;-55
2021/10/06 08:36:40;;;;;;;11.50;9.50;;;15.40;99.90;;;;;;4992896;28;20465;-56
2021/10/06 08:39:08;;;;;;;15.48;10.98;;;15.60;99.90;;;;;;4996621;28;20054;-55
2021/10/06 08:41:35;;;;;;;16.40;9.88;;;15.70;99.90;;;;;;4996633;28;20038;-53
2021/10/06 08:44:01;;;;;;;13.38;8.75;;;15.70;99.90;;;;;;4996651;28;20038;-56
2021/10/06 08:46:28;;;;;;;12.50;6.50;;;15.70;99.90;;;;;;5027370;28;20064;-52
2021/10/06 08:48:54;;;;;;;10.23;6.45;;;15.70;99.90;;;;;;4996503;28;20034;-56
2021/10/06 08:51:22;;;;;;;10.32;6.97;;;15.80;99.90;;;;;;4996481;28;20113;-56
2021/10/06 08:53:49;;;;;;;8.45;5.57;;;15.70;99.90;;;;;;5003980;28;20128;-54
2021/10/06 08:56:15;;;;;;;10.15;7.80;;;15.80;99.90;;;;;;5007544;28;20046;-56
2021/10/06 08:58:41;;;;;;;8.57;7.03;;;16.00;99.90;;;;;;5004336;28;20146;-58
2021/10/06 09:01:07;;;;;;;16.90;7.95;;;15.70;99.90;;;;;;4995614;28;20395;-54
2021/10/06 09:03:36;;;;;;;8.35;5.25;;;15.80;99.90;;;;;;4994506;28;20064;-51
2021/10/06 09:06:07;;;;;;;9.40;6.20;;;15.80;99.90;;;;;;5001787;28;20030;-54
2021/10/06 09:08:34;;;;;;;7.47;5.47;;;15.50;99.90;;;;;;4976716;28;20038;-54
2021/10/06 09:11:02;;;;;;;11.25;6.45;;;15.50;99.90;;;;;;4993155;28;20081;-54
2021/10/06 09:13:33;;;;;;;10.77;6.97;;;15.30;99.90;;;;;;4992921;28;20038;-53
2021/10/06 09:15:59;;;;;;;12.30;9.20;;;15.30;99.90;;;;;;4993036;28;20113;-54
2021/10/06 09:18:27;;;;;;;10.90;8.82;;;15.60;99.90;;;;;;4993904;28;20488;-54
2021/10/06 09:21:00;;;;;;;11.50;5.93;;;15.60;99.90;;;;;;4993340;28;20034;-54
2021/10/06 09:23:26;;;;;;;11.57;6.75;;;15.50;99.90;;;;;;4993604;28;20038;-53
2021/10/06 09:26:03;;;;;;;9.23;7.75;;;15.60;99.90;;;;;;4977270;28;20042;-54
2021/10/06 09:28:31;;;;;;;12.63;7.78;;;15.80;99.90;;;;;;4993539;28;20046;-54
2021/10/06 09:31:01;;;;;;;14.38;9.30;;;15.90;99.90;;;;;;4993335;28;20038;-53
2021/10/06 09:33:47;;;;;;;11.63;8.63;;;15.90;99.90;;;;;;4993516;28;20050;-53
2021/10/06 09:36:35;;;;;;;8.95;6.10;;;16.00;99.90;;;;;;4993066;28;20057;-54
2021/10/06 09:39:06;;;;;;;12.70;9.20;;;16.00;99.90;;;;;;4999740;28;20038;-53
2021/10/06 09:41:45;;;;;;;10.32;8.07;;;16.00;99.90;;;;;;5015128;28;20066;-54
2021/10/06 09:44:16;;;;;;;10.57;8.85;;;15.90;99.90;;;;;;5015223;28;20389;-53
2021/10/06 09:46:47;;;;;;;10.63;6.88;;;15.80;99.90;;;;;;5015128;28;20034;-53
2021/10/06 09:49:24;;;;;;;10.23;7.88;;;15.90;99.90;;;;;;5015191;28;20036;-53
2021/10/06 09:51:52;;;;;;;12.93;10.05;;;15.70;99.90;;;;;;4996124;28;20045;-53
2021/10/06 09:54:19;;;;;;;11.07;7.57;;;15.80;99.90;;;;;;4994116;28;20052;-53
2021/10/06 09:56:48;;;;;;;13.95;9.38;;;15.70;99.90;;;;;;5003181;28;20037;-52
2021/10/06 09:59:15;;;;;;;10.18;8.65;;;15.70;99.90;;;;;;5011269;28;20482;-49
2021/10/06 10:01:42;;;;;;;17.10;10.43;;;15.60;99.90;;;;;;5012066;28;20113;-50
2021/10/06 10:04:10;;;;;;;10.63;6.97;;;15.80;99.90;;;;;;5012270;28;20033;-49
2021/10/06 10:06:37;;;;;;;8.57;7.05;;;15.60;99.90;;;;;;4954659;28;20042;-49
2021/10/06 10:09:08;;;;;;;22.42;11.77;;;15.60;99.90;;;;;;4991134;28;20043;-53
2021/10/06 10:11:38;;;;;;;15.40;10.50;;;15.70;99.90;;;;;;4990114;28;20042;-53
2021/10/06 10:14:07;;;;;;;16.13;10.48;;;15.80;99.90;;;;;;4987965;28;20410;-54
2021/10/06 10:16:33;;;;;;;14.20;7.88;;;16.00;99.90;;;;;;4987516;28;20051;-56
2021/10/06 10:19:09;;;;;;;11.48;8.73;;;15.90;99.90;;;;;;4989784;28;20049;-55
2021/10/06 10:21:39;;;;;;;10.73;6.22;;;16.00;99.90;;;;;;4980750;28;20046;-53
2021/10/06 10:24:11;;;;;;;14.60;8.88;;;15.70;99.90;;;;;;4987806;28;20019;-56
2021/10/06 10:26:52;;;;;;;;;;;15.80;99.90;;;;;;4944065;28;20063;-53
2021/10/06 10:29:38;;;;;;;15.85;9.10;;;15.80;99.90;;;;;;4976155;28;19917;-55
2021/10/06 10:32:10;;;;;;;14.73;8.15;;;14.80;99.90;;;;;;4971002;28;20422;-55
2021/10/06 10:35:08;;;;;;;14.73;9.68;;;15.70;99.90;;;;;;4984238;28;20026;-55
2021/10/06 10:37:47;;;;;;;11.25;7.65;;;15.60;99.90;;;;;;4965031;28;20033;-56
2021/10/06 10:40:33;;;;;;;4.78;4.20;;;15.50;99.90;;;;;;5010959;28;20135;-54
2021/10/06 10:43:00;;;;;;;13.55;10.27;;;15.40;99.90;;;;;;5004977;28;20073;-55
2021/10/06 10:45:38;;;;;;;13.20;8.63;;;15.60;99.90;;;;;;5011269;28;20033;-55
2021/10/06 10:48:05;;;;;;;14.52;10.30;;;15.70;99.90;;;;;;5008398;28;20417;-55
2021/10/06 10:51:01;;;;;;;17.60;11.32;;;15.70;99.90;;;;;;5012180;28;20041;-54
2021/10/06 10:53:51;;;;;;;17.70;10.07;;;15.80;99.90;;;;;;4926191;29;20512;-53
2021/10/06 10:56:48;;;;;;;15.65;10.10;;;15.90;99.90;;;;;;4933631;29;20094;-55
2021/10/06 10:59:22;;;;;;;13.52;7.55;;;15.90;99.90;;;;;;4930786;29;20036;-53
2021/10/06 11:01:49;;;;;;;16.75;9.73;;;16.00;99.90;;;;;;4931833;29;20039;-55
2021/10/06 11:04:19;;;;;;;15.20;9.95;;;16.10;99.90;;;;;;4931413;29;20616;-53
2021/10/06 11:06:47;;;;;;;13.98;9.32;;;16.20;99.90;;;;;;4916697;29;20131;-56
2021/10/06 11:09:43;;;;;;;13.38;8.20;;;16.30;99.90;;;;;;4933346;29;20035;-53
2021/10/06 11:12:12;;;;;;;15.07;9.60;;;16.20;99.90;;;;;;4893385;29;20431;-54
2021/10/06 11:14:40;;;;;;;9.32;6.90;;;16.40;99.90;;;;;;4892541;29;20111;-54
2021/10/06 11:17:12;;;;;;;14.63;8.18;;;16.40;99.90;;;;;;4893200;29;20401;-55
2021/10/06 11:19:51;;;;;;;12.88;8.38;;;16.60;99.90;;;;;;4878083;29;20032;-55
2021/10/06 11:22:23;;;;;;;16.67;10.57;;;16.70;99.90;;;;;;4893267;29;20036;-55
2021/10/06 11:24:49;;;;;;;9.85;6.78;;;16.90;99.90;;;;;;4893817;29;20036;-55
2021/10/06 11:27:16;;;;;;;13.30;8.65;;;16.90;99.90;;;;;;4893485;29;20041;-56
2021/10/06 11:29:45;;;;;;;12.43;7.50;;;17.00;99.90;;;;;;4907312;29;20039;-55
2021/10/06 11:32:11;;;;;;;13.57;9.80;;;17.30;99.90;;;;;;4931058;29;20036;-56
2021/10/06 11:34:47;;;;;;;13.27;9.75;;;17.60;99.90;;;;;;4931980;29;20114;-56
2021/10/06 11:37:20;;;;;;;10.02;7.00;;;17.80;99.90;;;;;;4931650;29;21023;-56
2021/10/06 11:39:47;;;;;;;14.27;7.93;;;17.90;99.90;;;;;;4932555;29;20491;-55
2021/10/06 11:42:14;;;;;;;14.18;8.23;;;18.00;99.90;;;;;;4931290;29;20039;-55
2021/10/06 11:44:41;;;;;;;13.77;9.00;;;18.10;99.90;;;;;;4930573;29;20130;-56
2021/10/06 11:47:09;;;;;;;14.50;8.70;;;18.10;99.90;;;;;;4931875;29;20171;-56
2021/10/06 11:49:38;;;;;;;6.55;4.80;;;18.10;99.90;;;;;;5007110;28;20497;-55
2021/10/06 11:52:06;;;;;;;15.15;7.90;;;17.80;99.90;;;;;;4991407;28;20189;-53
2021/10/06 11:54:33;;;;;;;14.77;8.98;;;18.00;99.90;;;;;;5010253;28;20080;-53
2021/10/06 11:57:02;;;;;;;13.88;7.65;;;18.00;99.90;;;;;;5008648;28;20045;-55
2021/10/06 11:59:30;;;;;;;10.88;7.47;;;17.70;99.60;;;;;;4944280;28;20041;-56
2021/10/06 12:02:00;;;;;;;8.55;6.55;;;17.60;99.60;;;;;;5010049;28;20042;-56
2021/10/06 12:04:29;;;;;;;11.43;7.60;;;17.50;99.50;;;;;;5030304;28;20045;-57
2021/10/06 12:07:08;;;;;;;14.85;8.40;;;17.50;99.80;;;;;;5007258;28;20038;-55
2021/10/06 12:09:40;;;;;;;9.63;6.18;;;17.50;99.90;;;;;;5009220;28;20125;-54
2021/10/06 12:12:12;;;;;;;11.07;8.07;;;17.50;99.60;;;;;;5008906;28;20034;-56
2021/10/06 12:14:54;;;;;;;8.77;5.43;;;17.60;99.40;;;;;;5008740;28;20482;-55
2021/10/06 12:17:24;;;;;;;17.52;9.00;;;17.50;99.40;;;;;;5009788;28;20477;-55
2021/10/06 12:20:06;;;;;;;8.68;7.10;;;17.70;99.60;;;;;;5009485;28;20053;-56
2021/10/06 12:22:43;;;;;;;9.88;6.43;;;17.70;99.30;;;;;;5009853;28;20029;-54
2021/10/06 12:25:19;;;;;;;12.57;8.45;;;17.70;99.00;;;;;;5010114;28;20452;-54
2021/10/06 12:28:06;;;;;;;11.57;8.23;;;17.90;99.40;;;;;;5010198;28;20100;-55
2021/10/06 12:30:33;;;;;;;10.00;8.05;;;17.90;98.80;;;;;;5006716;28;20065;-54
2021/10/06 12:33:08;;;;;;;8.93;6.15;;;18.10;98.90;;;;;;5009498;28;20041;-56
2021/10/06 12:35:53;;;;;;;11.65;6.85;;;18.10;98.50;;;;;;4992261;28;20061;-54
2021/10/06 12:38:19;;;;;;;13.82;8.50;;;18.20;98.40;;;;;;5004474;28;20049;-53
2021/10/06 12:40:51;;;;;;;13.88;9.57;;;18.40;98.40;;;;;;5009704;28;20033;-55
2021/10/06 12:43:23;;;;;;;13.77;9.48;;;18.60;98.50;;;;;;5009313;28;20080;-52
2021/10/06 12:46:07;;;;;;;12.23;9.07;;;18.80;97.90;;;;;;5006793;28;20084;-54